Time;durP1;ratioP1;P1;durP2;ratioP2;P2;SDS_P1;SDS_P2;PMS_P1;PMS_P2;Temp;Humidity;BMP_temperature;BMP_pressure;BME280_temperature;BME280_humidity;BME280_pressure;Samples;Min_cycle;Max_cycle;Signal;HPM_P1;HPM_P2
2023/06/09 00:00:27;;;;;;;10.85;3.20;;;;;;;;;;4857126;29;20121;-72
2023/06/09 00:03:16;;;;;;;9.63;2.75;;;;;;;;;;4856203;29;20062;-71
2023/06/09 00:05:42;;;;;;;10.05;2.40;;;;;;;;;;4855982;29;20120;-72
2023/06/09 00:08:08;;;;;;;6.25;2.67;;;;;;;;;;4855240;29;20117;-75
2023/06/09 00:10:34;;;;;;;9.63;2.70;;;;;;;;;;4848166;29;20046;-71
2023/06/09 00:13:02;;;;;;;14.43;3.58;;;;;;;;;;4859255;29;20068;-74
2023/06/09 00:15:28;;;;;;;7.25;2.13;;;;;;;;;;4859723;29;20513;-71
2023/06/09 00:17:55;;;;;;;9.13;2.58;;;;;;;;;;4853533;29;20069;-73
2023/06/09 00:20:21;;;;;;;7.45;2.38;;;;;;;;;;4857604;29;20076;-73
2023/06/09 00:22:48;;;;;;;8.60;2.55;;;;;;;;;;4855193;29;20057;-71
2023/06/09 00:25:15;;;;;;;13.00;2.58;;;;;;;;;;4858183;29;20472;-72
2023/06/09 00:27:45;;;;;;;8.48;2.90;;;;;;;;;;4854410;29;20057;-72
2023/06/09 00:30:14;;;;;;;8.15;2.45;;;;;;;;;;4858044;29;20053;-72
2023/06/09 00:32:42;;;;;;;6.68;2.40;;;;;;;;;;4856843;29;20095;-71
2023/06/09 00:35:09;;;;;;;9.52;2.65;;;;;;;;;;4856578;29;20491;-72
2023/06/09 00:37:35;;;;;;;8.27;2.45;;;;;;;;;;4858091;29;20057;-72
2023/06/09 00:40:03;;;;;;;6.57;2.60;;;;;;;;;;4853391;29;20045;-72
2023/06/09 00:42:34;;;;;;;9.40;2.53;;;;;;;;;;4848937;29;20062;-74
2023/06/09 00:45:00;;;;;;;9.40;2.65;;;;;;;;;;4856495;29;20129;-74
2023/06/09 00:47:26;;;;;;;7.45;2.47;;;;;;;;;;4852243;29;20046;-72
2023/06/09 00:49:53;;;;;;;10.23;2.70;;;;;;;;;;4857346;29;20154;-71
2023/06/09 00:52:20;;;;;;;7.50;2.67;;;;;;;;;;4852552;29;20493;-73
2023/06/09 00:54:47;;;;;;;8.40;2.67;;;;;;;;;;4850887;29;20057;-71
2023/06/09 00:57:13;;;;;;;9.25;2.45;;;;;;;;;;4854720;29;20104;-71
2023/06/09 00:59:40;;;;;;;11.07;3.00;;;;;;;;;;4857673;29;20042;-71
2023/06/09 01:02:07;;;;;;;11.70;2.58;;;;;;;;;;4852879;29;20049;-71
2023/06/09 01:04:35;;;;;;;9.88;2.63;;;;;;;;;;4854166;29;20057;-71
2023/06/09 01:07:42;;;;;;;8.52;2.38;;;;;;;;;;4850700;29;20053;-71
2023/06/09 01:10:22;;;;;;;6.72;2.50;;;;;;;;;;4870172;29;20052;-71
2023/06/09 01:13:03;;;;;;;9.93;2.67;;;;;;;;;;4867396;29;20056;-71
2023/06/09 01:15:35;;;;;;;8.55;2.30;;;;;;;;;;4889374;29;20059;-71
2023/06/09 01:18:03;;;;;;;7.20;2.60;;;;;;;;;;4885377;29;20052;-72
2023/06/09 01:21:02;;;;;;;9.02;2.70;;;;;;;;;;4868015;29;20056;-73
2023/06/09 01:23:40;;;;;;;8.27;2.80;;;;;;;;;;4885963;29;20056;-71
2023/06/09 01:26:09;;;;;;;7.50;2.55;;;;;;;;;;4887078;29;20052;-72
2023/06/09 01:28:38;;;;;;;10.38;3.13;;;;;;;;;;4878889;29;20055;-72
2023/06/09 01:31:04;;;;;;;7.38;2.95;;;;;;;;;;4882338;29;20093;-72
2023/06/09 01:33:32;;;;;;;9.65;3.15;;;;;;;;;;4867751;29;20144;-71
2023/06/09 01:35:58;;;;;;;8.90;2.65;;;;;;;;;;4886855;29;20068;-71
2023/06/09 01:38:25;;;;;;;7.68;2.67;;;;;;;;;;4879294;29;20064;-71
2023/06/09 01:40:52;;;;;;;8.88;3.00;;;;;;;;;;4887191;29;20056;-71
2023/06/09 01:43:19;;;;;;;10.48;2.97;;;;;;;;;;4878946;29;20057;-71
2023/06/09 01:45:44;;;;;;;9.60;3.50;;;;;;;;;;4856004;29;20058;-73
2023/06/09 01:48:14;;;;;;;12.30;3.60;;;;;;;;;;4853740;29;21020;-71
2023/06/09 01:50:53;;;;;;;9.77;3.20;;;;;;;;;;4853264;29;20051;-71
2023/06/09 01:53:32;;;;;;;8.85;2.75;;;;;;;;;;4852060;29;20081;-72
2023/06/09 01:56:06;;;;;;;7.95;3.08;;;;;;;;;;4849689;29;20052;-70
2023/06/09 01:58:44;;;;;;;8.40;3.00;;;;;;;;;;4850339;29;20065;-73
2023/06/09 02:01:28;;;;;;;10.95;3.20;;;;;;;;;;4854261;29;20055;-72
2023/06/09 02:03:55;;;;;;;11.18;3.28;;;;;;;;;;4854824;29;20045;-72
2023/06/09 02:06:23;;;;;;;10.43;3.58;;;;;;;;;;4853406;29;20050;-74
2023/06/09 02:08:50;;;;;;;9.57;2.95;;;;;;;;;;4850333;29;20339;-71
2023/06/09 02:11:15;;;;;;;11.70;3.25;;;;;;;;;;4851571;29;20050;-72
2023/06/09 02:13:42;;;;;;;11.38;3.35;;;;;;;;;;4846964;29;20112;-71
2023/06/09 02:16:08;;;;;;;11.05;3.42;;;;;;;;;;4853927;29;20406;-71
2023/06/09 02:18:34;;;;;;;12.32;3.28;;;;;;;;;;4847622;29;20057;-74
2023/06/09 02:21:00;;;;;;;10.75;3.58;;;;;;;;;;4854604;29;20054;-71
2023/06/09 02:23:27;;;;;;;12.77;3.45;;;;;;;;;;4850378;29;20058;-71
2023/06/09 02:25:52;;;;;;;9.02;3.20;;;;;;;;;;4848432;29;20081;-72
2023/06/09 02:28:18;;;;;;;12.38;3.63;;;;;;;;;;4853569;29;20053;-70
2023/06/09 02:30:45;;;;;;;15.00;3.78;;;;;;;;;;4853331;29;20076;-71
2023/06/09 02:33:14;;;;;;;13.05;4.30;;;;;;;;;;4851589;29;20052;-70
2023/06/09 02:35:41;;;;;;;12.02;3.92;;;;;;;;;;4856732;29;20053;-72
2023/06/09 02:38:07;;;;;;;12.15;4.63;;;;;;;;;;4854289;29;20072;-71
2023/06/09 02:40:33;;;;;;;12.65;4.65;;;;;;;;;;4856069;29;20053;-72
2023/06/09 02:43:00;;;;;;;14.07;4.97;;;;;;;;;;4850656;29;20077;-70
2023/06/09 02:45:26;;;;;;;17.88;5.15;;;;;;;;;;4851552;29;20129;-71
2023/06/09 02:47:52;;;;;;;12.65;6.10;;;;;;;;;;4851994;29;20049;-72
2023/06/09 02:50:18;;;;;;;18.08;6.50;;;;;;;;;;4846054;29;20049;-72
2023/06/09 02:52:44;;;;;;;21.33;6.10;;;;;;;;;;4850606;29;20072;-72
2023/06/09 02:55:11;;;;;;;13.68;6.60;;;;;;;;;;4855270;29;20057;-72
2023/06/09 02:57:37;;;;;;;19.30;7.30;;;;;;;;;;4858465;29;20514;-70
2023/06/09 03:00:06;;;;;;;16.33;6.95;;;;;;;;;;4855770;29;20081;-72
2023/06/09 03:02:34;;;;;;;19.92;7.05;;;;;;;;;;4853385;29;20057;-70
2023/06/09 03:05:00;;;;;;;20.17;7.53;;;;;;;;;;4855924;29;20133;-71
2023/06/09 03:07:26;;;;;;;14.77;6.78;;;;;;;;;;4858189;29;20530;-73
2023/06/09 03:09:52;;;;;;;15.82;7.32;;;;;;;;;;4856450;29;20091;-73
2023/06/09 03:12:18;;;;;;;14.13;7.22;;;;;;;;;;4858896;29;20053;-72
2023/06/09 03:14:45;;;;;;;16.10;6.88;;;;;;;;;;4856613;29;20061;-71
2023/06/09 03:17:12;;;;;;;19.90;8.02;;;;;;;;;;4852088;29;20061;-72
2023/06/09 03:19:39;;;;;;;16.05;7.20;;;;;;;;;;4856043;29;20100;-73
2023/06/09 03:22:05;;;;;;;14.25;6.45;;;;;;;;;;4856316;29;20061;-71
2023/06/09 03:24:33;;;;;;;20.65;8.32;;;;;;;;;;4855974;29;20053;-71
2023/06/09 03:27:01;;;;;;;18.52;8.60;;;;;;;;;;4854814;29;20057;-71
2023/06/09 03:29:28;;;;;;;14.10;8.40;;;;;;;;;;4858629;29;20053;-73
2023/06/09 03:31:56;;;;;;;18.88;8.98;;;;;;;;;;4860775;29;20396;-72
2023/06/09 03:34:23;;;;;;;17.10;8.70;;;;;;;;;;4851250;29;20049;-72
2023/06/09 03:36:50;;;;;;;22.48;9.38;;;;;;;;;;4854330;29;20081;-72
2023/06/09 03:39:16;;;;;;;21.30;9.68;;;;;;;;;;4855471;29;20072;-72
2023/06/09 03:41:44;;;;;;;22.10;8.98;;;;;;;;;;4849678;29;20125;-70
2023/06/09 03:44:09;;;;;;;19.85;9.82;;;;;;;;;;4850295;29;20109;-72
2023/06/09 03:46:36;;;;;;;18.90;9.38;;;;;;;;;;4858930;29;20057;-72
2023/06/09 03:49:01;;;;;;;24.20;9.55;;;;;;;;;;4853002;29;20113;-71
2023/06/09 03:51:27;;;;;;;16.38;8.63;;;;;;;;;;4853036;29;20136;-71
2023/06/09 03:53:54;;;;;;;22.05;9.13;;;;;;;;;;4857505;29;20053;-73
2023/06/09 03:56:21;;;;;;;25.30;9.35;;;;;;;;;;4852096;29;20053;-73
2023/06/09 03:58:46;;;;;;;20.10;9.73;;;;;;;;;;4853699;29;20601;-72
2023/06/09 04:01:12;;;;;;;21.20;9.55;;;;;;;;;;4852076;29;20447;-72
2023/06/09 04:03:38;;;;;;;19.33;9.85;;;;;;;;;;4854194;29;20065;-72
2023/06/09 04:06:05;;;;;;;20.98;10.15;;;;;;;;;;4850510;29;20422;-71
2023/06/09 04:08:31;;;;;;;17.52;9.63;;;;;;;;;;4851542;29;20050;-74
2023/06/09 04:10:58;;;;;;;20.42;9.48;;;;;;;;;;4855770;29;20053;-72
2023/06/09 04:13:24;;;;;;;16.85;9.77;;;;;;;;;;4854594;29;20058;-72
2023/06/09 04:15:51;;;;;;;20.40;10.05;;;;;;;;;;4852981;29;20073;-73
2023/06/09 04:18:19;;;;;;;21.38;9.90;;;;;;;;;;4854932;29;20053;-72
2023/06/09 04:20:45;;;;;;;20.02;9.85;;;;;;;;;;4857620;29;20053;-71
2023/06/09 04:23:10;;;;;;;18.27;9.75;;;;;;;;;;4847748;29;20138;-74
2023/06/09 04:25:37;;;;;;;18.20;9.38;;;;;;;;;;4854217;29;20069;-73
2023/06/09 04:28:03;;;;;;;18.70;9.70;;;;;;;;;;4852164;29;20069;-73
2023/06/09 04:30:30;;;;;;;16.17;8.98;;;;;;;;;;4848197;29;20054;-74
2023/06/09 04:33:04;;;;;;;19.17;9.32;;;;;;;;;;4856122;29;20503;-71
2023/06/09 04:35:31;;;;;;;18.90;9.23;;;;;;;;;;4849996;29;20391;-72
2023/06/09 04:37:59;;;;;;;20.35;9.27;;;;;;;;;;4848709;29;20157;-73
2023/06/09 04:40:28;;;;;;;19.17;9.15;;;;;;;;;;4856975;29;20057;-77
2023/06/09 04:42:58;;;;;;;21.08;8.98;;;;;;;;;;4848538;29;20049;-72
2023/06/09 04:45:33;;;;;;;17.98;8.50;;;;;;;;;;4853325;29;20050;-74
2023/06/09 04:47:59;;;;;;;;;;;;;;;;;;4854834;29;20499;-73
2023/06/09 04:50:32;;;;;;;18.08;8.75;;;;;;;;;;4854691;29;19935;-72
2023/06/09 04:52:58;;;;;;;14.25;8.73;;;;;;;;;;4854462;29;20140;-76
2023/06/09 04:55:26;;;;;;;16.05;9.38;;;;;;;;;;4868815;29;22054;-71
2023/06/09 04:57:56;;;;;;;22.85;9.13;;;;;;;;;;4853740;29;20114;-76
2023/06/09 05:00:26;;;;;;;18.95;9.05;;;;;;;;;;4849472;29;20136;-73
2023/06/09 05:02:53;;;;;;;17.17;8.80;;;;;;;;;;4857528;29;20062;-73
2023/06/09 05:05:20;;;;;;;17.20;8.23;;;;;;;;;;4856618;29;20125;-73
2023/06/09 05:07:46;;;;;;;15.60;7.70;;;;;;;;;;4856350;29;20140;-72
2023/06/09 05:10:15;;;;;;;20.85;8.38;;;;;;;;;;4854762;29;20042;-71
2023/06/09 05:12:41;;;;;;;17.55;8.40;;;;;;;;;;4846613;29;20079;-72
2023/06/09 05:15:08;;;;;;;18.40;8.40;;;;;;;;;;4848015;29;20414;-63
2023/06/09 05:18:17;;;;;;;14.98;8.02;;;;;;;;;;4849904;29;20057;-64
2023/06/09 05:21:15;;;;;;;16.33;8.05;;;;;;;;;;4853709;29;20052;-70
2023/06/09 05:23:41;;;;;;;19.10;8.25;;;;;;;;;;4849798;29;20049;-68
2023/06/09 05:26:07;;;;;;;20.10;7.68;;;;;;;;;;4856236;29;20137;-69
2023/06/09 05:28:35;;;;;;;15.98;7.65;;;;;;;;;;4851057;29;20057;-69
2023/06/09 05:31:01;;;;;;;22.73;8.00;;;;;;;;;;4854881;29;20046;-68
2023/06/09 05:33:27;;;;;;;31.92;8.45;;;;;;;;;;4849227;29;20488;-69
2023/06/09 05:35:53;;;;;;;28.65;7.50;;;;;;;;;;4848827;29;20136;-69
2023/06/09 05:38:23;;;;;;;24.15;7.90;;;;;;;;;;4846355;29;20049;-70
2023/06/09 05:40:49;;;;;;;17.95;7.30;;;;;;;;;;4852319;29;20049;-69
2023/06/09 05:43:15;;;;;;;23.17;7.22;;;;;;;;;;4851375;29;20053;-68
2023/06/09 05:45:43;;;;;;;19.45;6.50;;;;;;;;;;4856529;29;20080;-70
2023/06/09 05:48:10;;;;;;;17.38;7.03;;;;;;;;;;4845026;29;20053;-68
2023/06/09 05:50:37;;;;;;;20.40;7.13;;;;;;;;;;4854974;29;20122;-69
2023/06/09 05:53:08;;;;;;;15.55;6.60;;;;;;;;;;4846172;29;20057;-66
2023/06/09 05:55:34;;;;;;;16.30;7.03;;;;;;;;;;4847786;29;20064;-69
2023/06/09 05:58:02;;;;;;;17.65;6.50;;;;;;;;;;4851218;29;20053;-66
2023/06/09 06:00:30;;;;;;;14.20;6.85;;;;;;;;;;4852475;29;20050;-65
2023/06/09 06:02:59;;;;;;;24.92;7.65;;;;;;;;;;4851107;29;20402;-69
2023/06/09 06:05:24;;;;;;;15.65;7.30;;;;;;;;;;4847468;29;20065;-65
2023/06/09 06:07:52;;;;;;;15.25;7.30;;;;;;;;;;4844360;29;20106;-66
2023/06/09 06:10:18;;;;;;;19.92;7.15;;;;;;;;;;4848190;29;20057;-67
2023/06/09 06:12:47;;;;;;;19.83;7.38;;;;;;;;;;4845711;29;20117;-66
2023/06/09 06:15:13;;;;;;;18.50;6.80;;;;;;;;;;4845707;29;20443;-64
2023/06/09 06:17:40;;;;;;;15.73;7.95;;;;;;;;;;4843971;29;20067;-66
2023/06/09 06:20:07;;;;;;;15.63;7.43;;;;;;;;;;4847390;29;20071;-65
2023/06/09 06:22:33;;;;;;;13.32;7.30;;;;;;;;;;4848639;29;20136;-66
2023/06/09 06:25:00;;;;;;;14.45;7.10;;;;;;;;;;4851051;29;20145;-66
2023/06/09 06:27:29;;;;;;;14.35;7.10;;;;;;;;;;4852230;29;20080;-65
2023/06/09 06:29:56;;;;;;;17.60;7.43;;;;;;;;;;4853177;29;20129;-64
2023/06/09 06:32:23;;;;;;;16.50;7.30;;;;;;;;;;4853272;29;20820;-69
2023/06/09 06:34:48;;;;;;;11.60;6.78;;;;;;;;;;4847654;29;20088;-70
2023/06/09 06:37:15;;;;;;;14.43;6.45;;;;;;;;;;4853125;29;20041;-67
2023/06/09 06:39:41;;;;;;;18.58;6.20;;;;;;;;;;4860390;29;20049;-65
2023/06/09 06:42:11;;;;;;;11.10;5.38;;;;;;;;;;4856177;29;20050;-68
2023/06/09 06:44:39;;;;;;;14.20;5.88;;;;;;;;;;4858503;29;20049;-65
2023/06/09 06:47:06;;;;;;;12.20;5.35;;;;;;;;;;4851935;29;20546;-65
2023/06/09 06:49:32;;;;;;;11.73;5.25;;;;;;;;;;4852663;29;20156;-69
2023/06/09 06:51:58;;;;;;;14.48;5.35;;;;;;;;;;4852079;29;20516;-70
2023/06/09 06:54:26;;;;;;;14.07;6.32;;;;;;;;;;4847159;29;20066;-66
2023/06/09 06:56:53;;;;;;;15.23;5.22;;;;;;;;;;4853157;29;20057;-66
2023/06/09 06:59:18;;;;;;;12.90;5.18;;;;;;;;;;4848622;29;20125;-66
2023/06/09 07:01:45;;;;;;;16.70;5.10;;;;;;;;;;4857250;29;20057;-65
2023/06/09 07:04:11;;;;;;;13.80;5.25;;;;;;;;;;4856774;29;20045;-68
2023/06/09 07:06:38;;;;;;;16.90;5.47;;;;;;;;;;4858335;29;20037;-71
2023/06/09 07:09:05;;;;;;;14.52;5.88;;;;;;;;;;4854862;29;20081;-68
2023/06/09 07:11:43;;;;;;;12.85;5.10;;;;;;;;;;4857295;29;20415;-67
2023/06/09 07:14:11;;;;;;;10.68;5.18;;;;;;;;;;4855016;29;20160;-67
2023/06/09 07:16:40;;;;;;;12.43;5.07;;;;;;;;;;4852260;29;20057;-68
2023/06/09 07:19:08;;;;;;;13.68;4.78;;;;;;;;;;4842636;29;20046;-66
2023/06/09 07:21:35;;;;;;;10.05;4.88;;;;;;;;;;4854840;29;20053;-66
2023/06/09 07:24:03;;;;;;;11.85;4.50;;;;;;;;;;4843248;29;20065;-65
2023/06/09 07:26:32;;;;;;;11.88;4.38;;;;;;;;;;4846635;29;20489;-65
2023/06/09 07:28:59;;;;;;;11.55;4.03;;;;;;;;;;4848891;29;20065;-65
2023/06/09 07:31:25;;;;;;;8.32;3.65;;;;;;;;;;4851655;29;20049;-63
2023/06/09 07:33:51;;;;;;;13.55;3.42;;;;;;;;;;4854260;29;20079;-63
2023/06/09 07:36:17;;;;;;;9.50;3.38;;;;;;;;;;4843655;29;20098;-65
2023/06/09 07:38:43;;;;;;;7.70;3.28;;;;;;;;;;4855603;29;20049;-70
2023/06/09 07:41:11;;;;;;;7.97;3.42;;;;;;;;;;4856793;29;20120;-64
2023/06/09 07:43:37;;;;;;;6.93;2.72;;;;;;;;;;4855493;29;20182;-67
2023/06/09 07:46:03;;;;;;;5.75;2.90;;;;;;;;;;4854826;29;20045;-67
2023/06/09 07:48:32;;;;;;;7.75;3.47;;;;;;;;;;4851119;29;20738;-67
2023/06/09 07:51:03;;;;;;;6.95;3.03;;;;;;;;;;4854096;29;20046;-66
2023/06/09 07:54:08;;;;;;;5.95;2.72;;;;;;;;;;4848902;29;20100;-67
2023/06/09 07:57:50;;;;;;;13.10;3.38;;;;;;;;;;4846207;29;20080;-66
2023/06/09 08:01:30;;;;;;;16.52;3.25;;;;;;;;;;4856320;29;20516;-65
2023/06/09 08:05:09;;;;;;;4.55;2.42;;;;;;;;;;4852133;29;20498;-67
2023/06/09 08:08:52;;;;;;;5.13;2.50;;;;;;;;;;4853091;29;20125;-71
2023/06/09 08:12:31;;;;;;;8.05;3.00;;;;;;;;;;4852348;29;20140;-70
2023/06/09 08:16:14;;;;;;;5.35;2.30;;;;;;;;;;4851401;29;20052;-69
2023/06/09 08:19:55;;;;;;;5.90;2.40;;;;;;;;;;4844963;29;20132;-72
2023/06/09 08:23:37;;;;;;;6.82;2.50;;;;;;;;;;4851988;29;20096;-71
2023/06/09 08:27:18;;;;;;;5.90;2.63;;;;;;;;;;4853376;29;20045;-71
2023/06/09 08:30:59;;;;;;;3.35;1.85;;;;;;;;;;4854478;29;20077;-71
2023/06/09 08:34:40;;;;;;;4.75;2.20;;;;;;;;;;4849255;29;20141;-70
2023/06/09 08:38:22;;;;;;;3.72;2.20;;;;;;;;;;4856581;29;20279;-70
2023/06/09 08:42:03;;;;;;;5.53;1.90;;;;;;;;;;4853997;29;20063;-72
2023/06/09 08:45:44;;;;;;;7.07;2.42;;;;;;;;;;4850988;29;20049;-70
2023/06/09 08:49:30;;;;;;;6.20;1.52;;;;;;;;;;4851625;29;20116;-71
2023/06/09 08:53:13;;;;;;;7.53;1.90;;;;;;;;;;4853084;29;20045;-71
2023/06/09 08:56:53;;;;;;;5.70;1.73;;;;;;;;;;4852079;29;20403;-71
2023/06/09 09:00:34;;;;;;;4.75;1.50;;;;;;;;;;4853591;29;20049;-69
2023/06/09 09:04:14;;;;;;;5.03;2.05;;;;;;;;;;4855746;29;20051;-68
2023/06/09 09:07:55;;;;;;;5.43;2.25;;;;;;;;;;4848265;29;20045;-69
2023/06/09 09:11:37;;;;;;;7.55;1.70;;;;;;;;;;4854836;29;20057;-67
2023/06/09 09:15:20;;;;;;;7.65;1.73;;;;;;;;;;4852473;29;20046;-70
2023/06/09 09:19:00;;;;;;;8.13;1.90;;;;;;;;;;4846296;29;20049;-70
2023/06/09 09:22:48;;;;;;;7.35;1.95;;;;;;;;;;4848931;29;20060;-69
2023/06/09 09:26:29;;;;;;;7.68;2.05;;;;;;;;;;4855085;29;20081;-71
2023/06/09 09:30:09;;;;;;;4.60;2.10;;;;;;;;;;4848629;29;20088;-70
2023/06/09 09:33:49;;;;;;;1.95;1.33;;;;;;;;;;4844225;29;20581;-73
2023/06/09 09:37:30;;;;;;;9.10;2.00;;;;;;;;;;4853685;29;20113;-71
2023/06/09 09:41:11;;;;;;;8.48;2.05;;;;;;;;;;4864027;29;20461;-67
2023/06/09 09:44:57;;;;;;;4.65;1.40;;;;;;;;;;4848236;29;20042;-70
2023/06/09 09:48:49;;;;;;;4.43;1.60;;;;;;;;;;4846298;29;20050;-71
2023/06/09 09:52:31;;;;;;;3.03;1.38;;;;;;;;;;4855045;29;20409;-69
2023/06/09 09:56:11;;;;;;;3.95;1.48;;;;;;;;;;4848317;29;20062;-70
2023/06/09 09:59:51;;;;;;;3.58;1.60;;;;;;;;;;4848585;29;20085;-68
2023/06/09 10:03:36;;;;;;;5.55;1.60;;;;;;;;;;4847090;29;20037;-69
2023/06/09 10:07:19;;;;;;;4.70;1.52;;;;;;;;;;4849023;29;20049;-70
2023/06/09 10:11:00;;;;;;;3.50;1.48;;;;;;;;;;4855002;29;20049;-68
2023/06/09 10:14:40;;;;;;;4.60;1.70;;;;;;;;;;4850520;29;20057;-69
2023/06/09 10:18:20;;;;;;;5.47;1.80;;;;;;;;;;4850055;29;20106;-68
2023/06/09 10:22:01;;;;;;;4.25;1.70;;;;;;;;;;4853723;29;20053;-70
2023/06/09 10:25:41;;;;;;;5.97;1.63;;;;;;;;;;4848563;29;20046;-71
2023/06/09 10:29:21;;;;;;;4.97;1.83;;;;;;;;;;4851372;29;20113;-69
2023/06/09 10:33:04;;;;;;;3.22;1.70;;;;;;;;;;4856689;29;20136;-70
2023/06/09 10:36:42;;;;;;;3.75;1.63;;;;;;;;;;4856425;29;20041;-70
2023/06/09 10:40:31;;;;;;;6.88;1.50;;;;;;;;;;4852866;29;20053;-68
2023/06/09 10:44:46;;;;;;;2.53;1.50;;;;;;;;;;4850205;29;20074;-70
2023/06/09 10:48:26;;;;;;;7.22;1.60;;;;;;;;;;4854358;29;20542;-73
2023/06/09 10:51:27;;;;;;;5.03;1.70;;;;;;;;;;4846359;29;20045;-70
2023/06/09 10:55:07;;;;;;;3.75;1.73;;;;;;;;;;4857095;29;20052;-72
2023/06/09 10:58:56;;;;;;;2.45;1.30;;;;;;;;;;4850908;29;20117;-74
2023/06/09 11:02:04;;;;;;;4.32;1.27;;;;;;;;;;4856304;29;20494;-69
2023/06/09 11:05:45;;;;;;;3.30;1.50;;;;;;;;;;4848474;29;20056;-70
2023/06/09 11:09:40;;;;;;;3.65;1.42;;;;;;;;;;4849903;29;20056;-76
2023/06/09 11:13:22;;;;;;;3.85;1.70;;;;;;;;;;4852128;29;20496;-70
2023/06/09 11:17:00;;;;;;;3.78;1.50;;;;;;;;;;4849499;29;20089;-69
2023/06/09 11:20:10;;;;;;;3.13;1.10;;;;;;;;;;4850956;29;20049;-70
2023/06/09 11:23:50;;;;;;;5.03;1.20;;;;;;;;;;4852594;29;20118;-69
2023/06/09 11:27:36;;;;;;;4.93;1.80;;;;;;;;;;4848355;29;20526;-71
2023/06/09 11:31:19;;;;;;;7.00;1.40;;;;;;;;;;4847687;29;20426;-70
2023/06/09 11:35:05;;;;;;;6.13;1.23;;;;;;;;;;4850894;29;20049;-68
2023/06/09 11:38:44;;;;;;;1.50;0.90;;;;;;;;;;4846151;29;20045;-68
2023/06/09 11:42:24;;;;;;;5.07;1.60;;;;;;;;;;4851448;29;20339;-69
2023/06/09 11:46:08;;;;;;;9.02;1.48;;;;;;;;;;4852835;29;20541;-69
2023/06/09 11:49:48;;;;;;;2.20;1.10;;;;;;;;;;4855150;29;20494;-67
2023/06/09 11:53:30;;;;;;;3.13;1.35;;;;;;;;;;4856453;29;20135;-67
2023/06/09 11:57:25;;;;;;;2.95;1.15;;;;;;;;;;4855822;29;20053;-70
2023/06/09 12:01:06;;;;;;;5.82;1.17;;;;;;;;;;4857178;29;20423;-68
2023/06/09 12:04:48;;;;;;;6.15;1.45;;;;;;;;;;4850098;29;20057;-66
2023/06/09 12:08:34;;;;;;;1.92;0.98;;;;;;;;;;4847192;29;20072;-67
2023/06/09 12:12:14;;;;;;;2.83;1.10;;;;;;;;;;4854956;29;20069;-68
2023/06/09 12:15:55;;;;;;;5.05;1.40;;;;;;;;;;4856012;29;20060;-67
2023/06/09 12:19:35;;;;;;;7.80;1.70;;;;;;;;;;4848592;29;20045;-67
2023/06/09 12:23:18;;;;;;;6.05;1.23;;;;;;;;;;4854417;29;20060;-68
2023/06/09 12:27:02;;;;;;;2.70;1.13;;;;;;;;;;4853981;29;20053;-68
2023/06/09 12:30:42;;;;;;;3.22;1.00;;;;;;;;;;4854631;29;20048;-70
2023/06/09 12:34:29;;;;;;;2.33;1.02;;;;;;;;;;4848374;29;20053;-69
2023/06/09 12:38:10;;;;;;;3.78;0.88;;;;;;;;;;4851539;29;20073;-70
2023/06/09 12:41:53;;;;;;;3.63;0.90;;;;;;;;;;4849730;29;20482;-68
2023/06/09 12:45:33;;;;;;;2.78;1.08;;;;;;;;;;4855365;29;20084;-70
2023/06/09 12:49:14;;;;;;;7.13;1.33;;;;;;;;;;4853640;29;20084;-69
2023/06/09 12:52:54;;;;;;;0.98;0.80;;;;;;;;;;4854277;29;20046;-68
2023/06/09 12:56:34;;;;;;;2.58;0.90;;;;;;;;;;4856557;29;20058;-68
2023/06/09 13:00:15;;;;;;;2.17;0.90;;;;;;;;;;4850032;29;20057;-70
2023/06/09 13:03:55;;;;;;;2.72;0.90;;;;;;;;;;4854000;29;20359;-70
2023/06/09 13:07:35;;;;;;;6.30;1.20;;;;;;;;;;4850978;29;20049;-70
2023/06/09 13:11:16;;;;;;;15.05;1.00;;;;;;;;;;4853782;29;20049;-71
2023/06/09 13:14:56;;;;;;;3.97;1.10;;;;;;;;;;4844635;29;20056;-68
2023/06/09 13:18:36;;;;;;;1.98;0.93;;;;;;;;;;4852139;29;20068;-70
2023/06/09 13:22:17;;;;;;;10.80;1.15;;;;;;;;;;4852650;29;20590;-70
2023/06/09 13:25:57;;;;;;;2.97;1.38;;;;;;;;;;4856474;29;20054;-68
2023/06/09 13:29:37;;;;;;;5.75;1.20;;;;;;;;;;4848909;29;20053;-77
2023/06/09 13:33:19;;;;;;;5.75;0.80;;;;;;;;;;4852687;29;20052;-70
2023/06/09 13:36:59;;;;;;;3.60;1.00;;;;;;;;;;4851691;29;20055;-68
2023/06/09 13:40:43;;;;;;;1.90;0.90;;;;;;;;;;4847583;29;20046;-69
2023/06/09 13:44:19;;;;;;;5.65;1.30;;;;;;;;;;4851144;29;20056;-67
2023/06/09 13:48:03;;;;;;;2.60;1.08;;;;;;;;;;4851293;29;20042;-69
2023/06/09 13:51:43;;;;;;;2.60;0.77;;;;;;;;;;4851830;29;20058;-72
2023/06/09 13:55:24;;;;;;;2.03;1.00;;;;;;;;;;4855329;29;20140;-68
2023/06/09 13:59:06;;;;;;;1.00;0.68;;;;;;;;;;4852399;29;20069;-71
2023/06/09 14:02:47;;;;;;;4.28;0.73;;;;;;;;;;4856629;29;20050;-69
2023/06/09 14:06:27;;;;;;;5.38;0.90;;;;;;;;;;4847483;29;20057;-68
2023/06/09 14:10:09;;;;;;;5.65;1.00;;;;;;;;;;4849624;29;20252;-67
2023/06/09 14:13:49;;;;;;;5.30;1.00;;;;;;;;;;4852942;29;20358;-69
2023/06/09 14:17:30;;;;;;;3.67;0.93;;;;;;;;;;4853921;29;20053;-69
2023/06/09 14:21:13;;;;;;;4.90;1.30;;;;;;;;;;4848670;29;20105;-67
2023/06/09 14:24:53;;;;;;;3.47;0.90;;;;;;;;;;4846408;29;20053;-72
2023/06/09 14:28:33;;;;;;;4.60;1.00;;;;;;;;;;4851825;29;20049;-67
2023/06/09 14:32:15;;;;;;;2.13;1.00;;;;;;;;;;4852378;29;20407;-68
2023/06/09 14:35:55;;;;;;;5.68;1.13;;;;;;;;;;4854205;29;20376;-69
2023/06/09 14:39:36;;;;;;;8.70;1.27;;;;;;;;;;4844042;29;20061;-70
2023/06/09 14:43:16;;;;;;;3.63;0.90;;;;;;;;;;4846669;29;20041;-68
2023/06/09 14:46:57;;;;;;;1.92;1.10;;;;;;;;;;4849097;29;20064;-72
2023/06/09 14:50:37;;;;;;;3.20;1.13;;;;;;;;;;4854388;29;20041;-69
2023/06/09 14:54:17;;;;;;;2.50;0.88;;;;;;;;;;4855157;29;20057;-69
2023/06/09 14:57:57;;;;;;;3.40;1.10;;;;;;;;;;4857338;29;20414;-72
2023/06/09 15:01:38;;;;;;;2.08;1.00;;;;;;;;;;4850972;29;20089;-68
2023/06/09 15:05:21;;;;;;;4.32;1.05;;;;;;;;;;4853282;29;20117;-67
2023/06/09 15:09:01;;;;;;;2.28;1.13;;;;;;;;;;4854340;29;20304;-69
2023/06/09 15:12:42;;;;;;;3.88;1.10;;;;;;;;;;4847103;29;20098;-69
2023/06/09 15:16:22;;;;;;;6.70;1.45;;;;;;;;;;4847572;29;20406;-68
2023/06/09 15:20:03;;;;;;;4.38;1.20;;;;;;;;;;4853989;29;20060;-67
2023/06/09 15:23:44;;;;;;;3.78;1.08;;;;;;;;;;4850955;29;20052;-68
2023/06/09 15:26:45;;;;;;;3.33;1.10;;;;;;;;;;4859475;29;20052;-72
2023/06/09 15:29:11;;;;;;;4.72;1.20;;;;;;;;;;4856005;29;20049;-69
2023/06/09 15:31:37;;;;;;;7.70;1.90;;;;;;;;;;4854881;29;20072;-69
2023/06/09 15:34:03;;;;;;;10.45;2.60;;;;;;;;;;4854966;29;20450;-71
2023/06/09 15:36:29;;;;;;;11.50;2.10;;;;;;;;;;4854202;29;20057;-70
2023/06/09 15:38:57;;;;;;;5.07;1.30;;;;;;;;;;4854572;29;20069;-66
2023/06/09 15:41:24;;;;;;;8.10;1.52;;;;;;;;;;4835123;29;20065;-67
2023/06/09 15:43:54;;;;;;;6.85;2.00;;;;;;;;;;4854936;29;20491;-68
2023/06/09 15:46:20;;;;;;;13.40;2.80;;;;;;;;;;4853750;29;20054;-69
2023/06/09 15:48:46;;;;;;;11.48;2.72;;;;;;;;;;4853104;29;20061;-68
2023/06/09 15:51:11;;;;;;;12.88;2.70;;;;;;;;;;4857403;29;20080;-69
2023/06/09 15:53:38;;;;;;;8.70;2.60;;;;;;;;;;4855059;29;20050;-71
2023/06/09 15:56:04;;;;;;;9.93;2.42;;;;;;;;;;4853662;29;20148;-72
2023/06/09 15:58:30;;;;;;;10.82;2.70;;;;;;;;;;4853269;29;20054;-70
2023/06/09 16:00:56;;;;;;;10.82;2.90;;;;;;;;;;4853232;29;20048;-70
2023/06/09 16:03:25;;;;;;;18.33;3.35;;;;;;;;;;4852211;29;20072;-70
2023/06/09 16:05:51;;;;;;;16.20;3.35;;;;;;;;;;4854127;29;20057;-70
2023/06/09 16:08:18;;;;;;;17.85;3.35;;;;;;;;;;4847657;29;20057;-70
2023/06/09 16:11:25;;;;;;;12.73;2.90;;;;;;;;;;4852096;29;20054;-68
2023/06/09 16:15:05;;;;;;;21.10;4.30;;;;;;;;;;4848054;29;20045;-68
2023/06/09 16:18:46;;;;;;;16.00;3.70;;;;;;;;;;4851915;29;20057;-69
2023/06/09 16:22:27;;;;;;;16.52;3.13;;;;;;;;;;4853831;29;20063;-68
2023/06/09 16:26:06;;;;;;;21.88;3.50;;;;;;;;;;4852279;29;20049;-70
2023/06/09 16:29:50;;;;;;;17.35;4.20;;;;;;;;;;4854485;29;20400;-70
2023/06/09 16:33:28;;;;;;;17.33;4.00;;;;;;;;;;4855237;29;20129;-70
2023/06/09 16:37:08;;;;;;;15.43;3.80;;;;;;;;;;4854969;29;20049;-69
2023/06/09 16:40:49;;;;;;;26.10;3.67;;;;;;;;;;4849435;29;20054;-68
2023/06/09 16:44:29;;;;;;;10.38;2.92;;;;;;;;;;4854228;29;20073;-70
2023/06/09 16:48:10;;;;;;;17.98;3.67;;;;;;;;;;4848326;29;20061;-70
2023/06/09 16:51:50;;;;;;;15.65;3.20;;;;;;;;;;4856719;29;20053;-68
2023/06/09 16:55:30;;;;;;;11.75;3.05;;;;;;;;;;4848586;29;20410;-69
2023/06/09 16:59:11;;;;;;;12.85;3.35;;;;;;;;;;4848411;29;20068;-69
2023/06/09 17:02:51;;;;;;;15.50;3.38;;;;;;;;;;4845741;29;20068;-73
2023/06/09 17:06:33;;;;;;;11.65;2.80;;;;;;;;;;4846972;29;20065;-69
2023/06/09 17:10:14;;;;;;;16.63;3.30;;;;;;;;;;4847415;29;20465;-69
2023/06/09 17:13:54;;;;;;;11.05;3.00;;;;;;;;;;4844375;29;20053;-67
2023/06/09 17:17:34;;;;;;;10.43;2.80;;;;;;;;;;4852595;29;20473;-66
2023/06/09 17:21:14;;;;;;;11.50;2.63;;;;;;;;;;4842902;29;20414;-68
2023/06/09 17:24:54;;;;;;;8.85;2.60;;;;;;;;;;4850111;29;20053;-67
2023/06/09 17:28:35;;;;;;;10.30;3.10;;;;;;;;;;4851985;29;20089;-67
2023/06/09 17:32:15;;;;;;;9.43;3.28;;;;;;;;;;4846574;29;20056;-68
2023/06/09 17:35:55;;;;;;;11.48;2.85;;;;;;;;;;4843794;29;20057;-65
2023/06/09 17:39:36;;;;;;;9.88;2.70;;;;;;;;;;4847369;29;20065;-69